Time;durP1;ratioP1;P1;durP2;ratioP2;P2;SDS_P1;SDS_P2;PMS_P1;PMS_P2;Temp;Humidity;BMP_temperature;BMP_pressure;BME280_temperature;BME280_humidity;BME280_pressure;Samples;Min_cycle;Max_cycle;Signal;HPM_P1;HPM_P2
2022/11/16 00:00:48;;;;;;;;;;;19.50;72.90;;;;;;4498947;31;19987;-72
2022/11/16 00:03:14;;;;;;;;;;;19.50;73.00;;;;;;4512456;31;20032;-72
2022/11/16 00:05:40;;;;;;;;;;;19.50;72.90;;;;;;4499766;31;20492;-72
2022/11/16 00:08:06;;;;;;;;;;;19.50;72.90;;;;;;4495705;31;20025;-73
2022/11/16 00:10:31;;;;;;;;;;;19.50;73.00;;;;;;4514835;31;20592;-73
2022/11/16 00:12:57;;;;;;;;;;;19.50;73.00;;;;;;4513260;31;20158;-73
2022/11/16 00:15:23;;;;;;;;;;;19.40;72.90;;;;;;4526460;31;20029;-73
2022/11/16 00:17:48;;;;;;;;;;;19.40;73.00;;;;;;4511224;31;20407;-72
2022/11/16 00:20:14;;;;;;;;;;;19.40;73.00;;;;;;4509854;31;20025;-73
2022/11/16 00:22:40;;;;;;;;;;;19.40;72.90;;;;;;4527196;31;20062;-73
2022/11/16 00:25:06;;;;;;;;;;;19.40;72.90;;;;;;4510835;31;20185;-73
2022/11/16 00:27:31;;;;;;;;;;;19.40;72.90;;;;;;4513463;31;20588;-73
2022/11/16 00:29:57;;;;;;;;;;;19.40;73.00;;;;;;4509511;31;20074;-74
2022/11/16 00:32:23;;;;;;;;;;;19.40;72.90;;;;;;4510075;31;20029;-74
2022/11/16 00:34:48;;;;;;;;;;;19.40;73.00;;;;;;4511117;31;20039;-73
2022/11/16 00:37:14;;;;;;;;;;;19.30;72.90;;;;;;4508121;31;20135;-73
2022/11/16 00:39:40;;;;;;;;;;;19.30;72.90;;;;;;4512674;31;20009;-73
2022/11/16 00:42:05;;;;;;;;;;;19.30;72.90;;;;;;4510053;31;20083;-72
2022/11/16 00:44:31;;;;;;;;;;;19.30;72.90;;;;;;4510990;31;20025;-72
2022/11/16 00:46:57;;;;;;;;;;;19.30;73.00;;;;;;4512192;31;20016;-74
2022/11/16 00:49:23;;;;;;;;;;;19.30;73.00;;;;;;4499225;31;20135;-74
2022/11/16 00:51:48;;;;;;;;;;;19.30;73.00;;;;;;4511541;31;19984;-73
2022/11/16 00:54:14;;;;;;;;;;;19.30;73.00;;;;;;4511210;31;20021;-73
2022/11/16 00:56:40;;;;;;;;;;;19.30;73.00;;;;;;4512491;31;20426;-73
2022/11/16 00:59:07;;;;;;;;;;;19.20;72.90;;;;;;4511325;31;20043;-73
2022/11/16 01:01:32;;;;;;;;;;;19.20;72.90;;;;;;4511513;31;20037;-72
2022/11/16 01:03:58;;;;;;;;;;;19.20;72.90;;;;;;4508726;31;20024;-72
2022/11/16 01:06:24;;;;;;;;;;;19.20;72.90;;;;;;4508985;31;20028;-72
2022/11/16 01:08:50;;;;;;;;;;;19.20;72.90;;;;;;4512236;31;20016;-72
2022/11/16 01:14:01;;;;;;;;;;;19.20;72.90;;;;;;4512161;31;20117;-72
2022/11/16 01:16:27;;;;;;;;;;;19.20;72.90;;;;;;4512284;31;20087;-73
2022/11/16 01:18:53;;;;;;;;;;;19.20;73.00;;;;;;4526496;31;20140;-74
2022/11/16 01:21:19;;;;;;;;;;;19.20;72.90;;;;;;4505206;31;20086;-73
2022/11/16 01:23:45;;;;;;;;;;;19.20;72.90;;;;;;4511195;31;20013;-74
2022/11/16 01:26:10;;;;;;;;;;;19.20;72.90;;;;;;4524208;31;19965;-73
2022/11/16 01:28:36;;;;;;;;;;;19.20;72.90;;;;;;4509463;31;20039;-75
2022/11/16 01:31:02;;;;;;;;;;;19.20;72.90;;;;;;4512222;31;20017;-73
2022/11/16 01:33:28;;;;;;;;;;;19.20;72.90;;;;;;4511389;31;20036;-74
2022/11/16 01:35:53;;;;;;;;;;;19.20;72.90;;;;;;4510497;31;20035;-73
2022/11/16 01:38:19;;;;;;;;;;;19.20;72.90;;;;;;4506887;31;20037;-73
2022/11/16 01:40:45;;;;;;;;;;;19.20;72.90;;;;;;4510769;31;20041;-74
2022/11/16 01:43:18;;;;;;;;;;;19.20;72.80;;;;;;4510529;31;20070;-73
2022/11/16 01:45:44;;;;;;;;;;;19.20;72.80;;;;;;4522768;31;20025;-74
2022/11/16 01:48:13;;;;;;;;;;;19.20;72.80;;;;;;4512175;31;20024;-74
2022/11/16 01:50:38;;;;;;;;;;;19.20;72.80;;;;;;4510841;31;20028;-74
2022/11/16 01:53:05;;;;;;;;;;;19.10;72.80;;;;;;4497281;31;20017;-74
2022/11/16 01:55:32;;;;;;;;;;;19.20;72.80;;;;;;4508801;31;20040;-74
2022/11/16 01:57:58;;;;;;;;;;;19.10;72.80;;;;;;4510224;31;20037;-73
2022/11/16 02:00:25;;;;;;;;;;;19.10;72.80;;;;;;4520311;31;20039;-72
2022/11/16 02:02:51;;;;;;;;;;;19.10;72.90;;;;;;4508367;31;20037;-73
2022/11/16 02:05:18;;;;;;;;;;;19.10;72.80;;;;;;4512435;31;20039;-73
2022/11/16 02:10:58;;;;;;;;;;;19.10;72.80;;;;;;4512900;31;20094;-73
2022/11/16 02:13:23;;;;;;;;;;;19.10;72.80;;;;;;4505081;31;20058;-72
2022/11/16 02:15:52;;;;;;;;;;;19.10;72.80;;;;;;4510939;31;20032;-74
2022/11/16 02:18:24;;;;;;;;;;;19.10;72.90;;;;;;4512933;31;20072;-73
2022/11/16 02:20:53;;;;;;;;;;;19.00;72.90;;;;;;4510388;31;20192;-74
2022/11/16 02:23:28;;;;;;;;;;;19.00;73.70;;;;;;4508070;31;20033;-73
2022/11/16 02:26:05;;;;;;;;;;;19.10;73.00;;;;;;4511171;31;20040;-73
2022/11/16 02:28:54;;;;;;;;;;;19.00;72.90;;;;;;4509687;31;20052;-73
2022/11/16 02:31:23;;;;;;;;;;;19.00;72.90;;;;;;4497199;31;20029;-73
2022/11/16 02:33:50;;;;;;;;;;;19.00;72.90;;;;;;4509538;31;20533;-73
2022/11/16 02:36:19;;;;;;;;;;;19.00;73.00;;;;;;4526109;31;20033;-73
2022/11/16 02:38:51;;;;;;;;;;;19.00;72.90;;;;;;4524523;31;20029;-72
2022/11/16 02:41:19;;;;;;;;;;;19.00;72.90;;;;;;4512692;31;20082;-73
2022/11/16 02:43:46;;;;;;;;;;;19.00;73.00;;;;;;4509920;31;20047;-72
2022/11/16 02:46:17;;;;;;;;;;;19.00;72.90;;;;;;4500697;31;20109;-73
2022/11/16 02:48:45;;;;;;;;;;;18.90;72.90;;;;;;4513723;31;20029;-73
2022/11/16 02:51:11;;;;;;;;;;;19.00;72.90;;;;;;4511270;31;20038;-73
2022/11/16 02:53:40;;;;;;;;;;;18.90;72.90;;;;;;4513734;31;20063;-73
2022/11/16 02:56:10;;;;;;;;;;;18.90;72.90;;;;;;4508943;31;19993;-72
2022/11/16 02:58:35;;;;;;;;;;;18.90;72.90;;;;;;4504259;31;20025;-73
2022/11/16 03:01:04;;;;;;;;;;;18.90;73.70;;;;;;4513649;31;20028;-73
2022/11/16 03:03:31;;;;;;;;;;;18.90;72.90;;;;;;4512010;31;20047;-73
2022/11/16 03:06:02;;;;;;;;;;;18.90;72.90;;;;;;4516368;31;20021;-72
2022/11/16 03:08:32;;;;;;;;;;;18.90;72.90;;;;;;4514668;31;20036;-72
2022/11/16 03:13:46;;;;;;;;;;;18.90;72.90;;;;;;4516336;31;20162;-72
2022/11/16 03:16:20;;;;;;;;;;;18.90;72.90;;;;;;4513333;31;20029;-73
2022/11/16 03:18:46;;;;;;;;;;;18.90;72.80;;;;;;4516450;31;20146;-73
2022/11/16 03:21:18;;;;;;;;;;;18.90;72.90;;;;;;4510779;31;20040;-72
2022/11/16 03:23:44;;;;;;;;;;;18.90;72.90;;;;;;4514021;31;20025;-73
2022/11/16 03:26:12;;;;;;;;;;;18.90;72.90;;;;;;4510927;31;19984;-74
2022/11/16 03:28:48;;;;;;;;;;;18.80;72.80;;;;;;4511738;31;20040;-74
2022/11/16 03:31:18;;;;;;;;;;;18.80;72.80;;;;;;4516089;31;20079;-72
2022/11/16 03:33:49;;;;;;;;;;;18.90;72.90;;;;;;4512674;31;20028;-73
2022/11/16 03:36:19;;;;;;;;;;;18.80;72.80;;;;;;4515146;31;20044;-73
2022/11/16 03:38:46;;;;;;;;;;;18.80;72.80;;;;;;4514843;31;20167;-72
2022/11/16 03:41:13;;;;;;;;;;;18.80;72.80;;;;;;4515099;31;20090;-73
2022/11/16 03:43:41;;;;;;;;;;;18.80;72.80;;;;;;4525883;31;20414;-72
2022/11/16 03:46:06;;;;;;;;;;;18.80;72.80;;;;;;4513767;31;20131;-74
2022/11/16 03:48:34;;;;;;;;;;;18.80;72.90;;;;;;4514836;31;20047;-73
2022/11/16 03:51:00;;;;;;;;;;;18.80;72.80;;;;;;4510290;31;20039;-73
2022/11/16 03:53:26;;;;;;;;;;;18.80;73.70;;;;;;4510955;31;20032;-73
2022/11/16 03:55:51;;;;;;;;;;;18.80;72.80;;;;;;4514347;31;20036;-72
2022/11/16 03:58:17;;;;;;;;;;;18.80;72.80;;;;;;4515164;31;20044;-73
2022/11/16 04:00:43;;;;;;;;;;;18.80;72.80;;;;;;4514364;31;19981;-72
2022/11/16 04:03:09;;;;;;;;;;;18.70;72.80;;;;;;4513574;31;20029;-72
2022/11/16 04:25:01;;;;;;;;;;;18.70;72.80;;;;;;4513156;31;20171;-73
2022/11/16 04:30:12;;;;;;;;;;;18.70;72.80;;;;;;4504618;31;20147;-72
2022/11/16 04:38:11;;;;;;;;;;;18.60;72.70;;;;;;4490943;31;20498;-73
2022/11/16 04:40:37;;;;;;;;;;;18.60;72.70;;;;;;4511287;31;20118;-73
2022/11/16 04:43:04;;;;;;;;;;;18.70;72.70;;;;;;4508592;31;20033;-72
2022/11/16 04:48:15;;;;;;;;;;;18.60;72.60;;;;;;4514978;31;20033;-73
2022/11/16 04:50:41;;;;;;;;;;;18.60;72.60;;;;;;4498705;31;20174;-73
2022/11/16 04:53:07;;;;;;;;;;;18.60;72.60;;;;;;4514936;31;20021;-72
2022/11/16 04:55:33;;;;;;;;;;;18.60;72.60;;;;;;4498427;31;20025;-72
2022/11/16 04:57:59;;;;;;;;;;;18.60;72.70;;;;;;4514697;31;20071;-72
2022/11/16 05:00:25;;;;;;;;;;;18.60;72.70;;;;;;4514309;31;20021;-72
2022/11/16 05:02:51;;;;;;;;;;;18.60;72.70;;;;;;4498624;31;20044;-73
2022/11/16 05:05:17;;;;;;;;;;;18.60;72.60;;;;;;4513522;31;20169;-72
2022/11/16 05:07:44;;;;;;;;;;;18.60;72.70;;;;;;4512692;31;20524;-72
2022/11/16 05:10:09;;;;;;;;;;;18.60;72.70;;;;;;4511009;31;20048;-72
2022/11/16 05:12:35;;;;;;;;;;;18.60;72.70;;;;;;4537835;31;20028;-73
2022/11/16 05:15:01;;;;;;;;;;;18.60;72.70;;;;;;4497608;31;20156;-72
2022/11/16 05:17:27;;;;;;;;;;;18.60;72.70;;;;;;4510937;31;20124;-72
2022/11/16 05:22:38;;;;;;;;;;;18.50;72.60;;;;;;4513407;31;20017;-73
2022/11/16 05:25:04;;;;;;;;;;;18.60;73.50;;;;;;4508660;31;20032;-73
2022/11/16 05:27:30;;;;;;;;;;;18.60;72.60;;;;;;4510060;31;20029;-73
2022/11/16 05:29:56;;;;;;;;;;;18.50;72.70;;;;;;4512681;31;20036;-72
2022/11/16 05:32:22;;;;;;;;;;;18.50;72.60;;;;;;4510280;31;20585;-73
2022/11/16 05:34:48;;;;;;;;;;;18.50;72.60;;;;;;4501673;31;20067;-72
2022/11/16 05:37:14;;;;;;;;;;;18.50;72.70;;;;;;4512284;31;20029;-72
2022/11/16 05:39:40;;;;;;;;;;;18.50;72.60;;;;;;4513225;31;20028;-72
2022/11/16 05:42:06;;;;;;;;;;;18.50;72.60;;;;;;4511074;31;20025;-73
2022/11/16 05:44:32;;;;;;;;;;;18.50;72.60;;;;;;4514407;31;21276;-72
2022/11/16 05:46:58;;;;;;;;;;;18.50;72.70;;;;;;4512112;31;20025;-72
2022/11/16 05:49:24;;;;;;;;;;;18.50;72.60;;;;;;4513973;31;20114;-72
2022/11/16 05:51:50;;;;;;;;;;;18.50;72.60;;;;;;4512141;31;20040;-72
2022/11/16 05:54:20;;;;;;;;;;;18.50;72.60;;;;;;4511497;31;20028;-72
2022/11/16 05:56:46;;;;;;;;;;;18.50;72.60;;;;;;4513917;31;20032;-72
2022/11/16 05:59:12;;;;;;;;;;;18.50;72.60;;;;;;4512037;31;20009;-73
2022/11/16 06:01:38;;;;;;;;;;;18.50;72.70;;;;;;4514010;31;20160;-73
2022/11/16 06:04:04;;;;;;;;;;;18.50;72.70;;;;;;4510678;31;20166;-72
2022/11/16 06:06:31;;;;;;;;;;;18.50;72.60;;;;;;4512799;31;20178;-73
2022/11/16 06:08:56;;;;;;;;;;;18.40;72.60;;;;;;4513289;31;19983;-72
2022/11/16 06:11:22;;;;;;;;;;;18.40;72.70;;;;;;4512458;31;20009;-72
2022/11/16 06:13:48;;;;;;;;;;;18.50;72.60;;;;;;4511574;31;20463;-72
2022/11/16 06:16:14;;;;;;;;;;;18.40;72.60;;;;;;4510726;31;20082;-73
2022/11/16 06:18:42;;;;;;;;;;;18.40;72.60;;;;;;4512971;31;20020;-73
2022/11/16 06:21:08;;;;;;;;;;;18.40;72.60;;;;;;4512080;31;20143;-72
2022/11/16 06:23:34;;;;;;;;;;;18.40;72.60;;;;;;4513870;31;20119;-73
2022/11/16 06:26:00;;;;;;;;;;;18.40;72.70;;;;;;4512107;31;19983;-72
2022/11/16 06:28:26;;;;;;;;;;;18.40;72.60;;;;;;4512432;31;20092;-72
2022/11/16 06:30:52;;;;;;;;;;;18.40;72.60;;;;;;4511853;31;20494;-72
2022/11/16 06:33:18;;;;;;;;;;;18.40;72.60;;;;;;4507675;31;20032;-72
2022/11/16 06:35:43;;;;;;;;;;;18.40;72.60;;;;;;4505179;31;20039;-72
2022/11/16 06:38:09;;;;;;;;;;;18.40;72.60;;;;;;4510668;31;20005;-72
2022/11/16 06:40:36;;;;;;;;;;;18.40;72.60;;;;;;4515766;31;20068;-72
2022/11/16 06:43:02;;;;;;;;;;;18.40;72.60;;;;;;4501463;31;20346;-72
2022/11/16 06:45:27;;;;;;;;;;;18.40;72.60;;;;;;4515639;31;20024;-72
2022/11/16 06:47:53;;;;;;;;;;;18.40;72.60;;;;;;4516888;31;20029;-72
2022/11/16 06:50:19;;;;;;;;;;;18.40;72.60;;;;;;4510617;31;20056;-72
2022/11/16 06:52:45;;;;;;;;;;;18.40;72.60;;;;;;4509250;31;20013;-72
2022/11/16 06:55:11;;;;;;;;;;;18.40;72.60;;;;;;4514389;31;20039;-73
2022/11/16 06:57:37;;;;;;;;;;;18.40;72.60;;;;;;4515613;31;20021;-73
2022/11/16 07:00:03;;;;;;;;;;;18.40;72.60;;;;;;4498587;31;20061;-72
2022/11/16 07:02:29;;;;;;;;;;;18.40;72.60;;;;;;4511803;31;20044;-72
2022/11/16 07:04:55;;;;;;;;;;;18.40;72.60;;;;;;4510392;31;20016;-71
2022/11/16 07:07:22;;;;;;;;;;;18.30;72.60;;;;;;4513265;31;20043;-72
2022/11/16 07:09:48;;;;;;;;;;;18.30;72.60;;;;;;4515418;31;20024;-72
2022/11/16 07:12:13;;;;;;;;;;;18.40;72.60;;;;;;4512631;31;20745;-72
2022/11/16 07:14:39;;;;;;;;;;;18.30;72.60;;;;;;4515404;31;20013;-72
2022/11/16 07:17:05;;;;;;;;;;;18.30;72.60;;;;;;4514735;31;20075;-72
2022/11/16 07:19:31;;;;;;;;;;;18.30;72.60;;;;;;4511913;31;20039;-72
2022/11/16 07:21:56;;;;;;;;;;;18.30;72.60;;;;;;4510446;31;19991;-72
2022/11/16 07:24:22;;;;;;;;;;;18.30;72.60;;;;;;4513261;31;20539;-72
2022/11/16 07:26:48;;;;;;;;;;;18.30;72.60;;;;;;4502023;31;20021;-73
2022/11/16 07:29:14;;;;;;;;;;;18.30;72.60;;;;;;4499565;31;20133;-73
2022/11/16 07:31:40;;;;;;;;;;;18.30;72.70;;;;;;4516088;31;20040;-72
2022/11/16 07:34:06;;;;;;;;;;;18.30;72.70;;;;;;4512466;31;20552;-72
2022/11/16 07:36:31;;;;;;;;;;;18.30;72.60;;;;;;4515065;31;20062;-73
2022/11/16 07:38:57;;;;;;;;;;;18.30;72.60;;;;;;4511954;31;19981;-72
2022/11/16 07:41:23;;;;;;;;;;;18.30;72.70;;;;;;4513730;31;20028;-72
2022/11/16 07:43:48;;;;;;;;;;;18.30;72.60;;;;;;4515979;31;20150;-72
2022/11/16 07:46:16;;;;;;;;;;;18.30;72.60;;;;;;4510014;31;20013;-72
2022/11/16 07:48:42;;;;;;;;;;;18.30;72.70;;;;;;4514911;31;20044;-75
2022/11/16 07:51:08;;;;;;;;;;;18.30;72.70;;;;;;4508005;31;20134;-73
2022/11/16 07:53:35;;;;;;;;;;;18.20;72.60;;;;;;4512291;31;20044;-73
2022/11/16 07:56:01;;;;;;;;;;;18.30;72.60;;;;;;4511449;31;20062;-72
2022/11/16 07:58:28;;;;;;;;;;;18.30;72.70;;;;;;4509453;31;20025;-72
2022/11/16 08:00:54;;;;;;;;;;;18.20;72.90;;;;;;4511943;31;20525;-72
2022/11/16 08:03:20;;;;;;;;;;;18.30;73.20;;;;;;4516322;31;20041;-71
2022/11/16 08:05:45;;;;;;;;;;;18.30;73.40;;;;;;4514947;31;20059;-72
2022/11/16 08:08:12;;;;;;;;;;;18.40;72.80;;;;;;4525530;31;20044;-73
2022/11/16 08:10:39;;;;;;;;;;;18.50;72.60;;;;;;4514368;31;20436;-72
2022/11/16 08:13:04;;;;;;;;;;;18.60;72.40;;;;;;4514916;31;20383;-72
2022/11/16 08:15:30;;;;;;;;;;;18.70;72.20;;;;;;4513898;31;20017;-72
2022/11/16 08:18:13;;;;;;;;;;;18.80;72.00;;;;;;4507806;31;20070;-73
2022/11/16 08:20:39;;;;;;;;;;;18.90;71.80;;;;;;4512759;31;20216;-72
2022/11/16 08:23:07;;;;;;;;;;;19.10;71.60;;;;;;4509222;31;20155;-71
2022/11/16 08:25:35;;;;;;;;;;;19.20;71.30;;;;;;4508408;31;20028;-71
2022/11/16 08:28:01;;;;;;;;;;;19.30;70.80;;;;;;4514443;31;20032;-72
2022/11/16 08:30:27;;;;;;;;;;;19.50;70.60;;;;;;4513353;31;20031;-71
2022/11/16 08:32:53;;;;;;;;;;;19.50;70.30;;;;;;4509423;31;20029;-72
2022/11/16 08:35:19;;;;;;;;;;;19.60;70.10;;;;;;4523956;31;20035;-74
2022/11/16 08:37:45;;;;;;;;;;;19.70;69.80;;;;;;4505909;31;20033;-75
2022/11/16 08:40:11;;;;;;;;;;;19.80;69.70;;;;;;4510943;31;20032;-75
2022/11/16 08:42:36;;;;;;;;;;;19.90;69.50;;;;;;4513275;31;20032;-74
2022/11/16 08:45:02;;;;;;;;;;;19.90;69.40;;;;;;4526938;31;20031;-72
2022/11/16 08:47:28;;;;;;;;;;;20.00;69.20;;;;;;4510697;31;20308;-70
2022/11/16 08:49:54;;;;;;;;;;;20.00;69.10;;;;;;4509073;31;20024;-72
2022/11/16 08:52:19;;;;;;;;;;;20.10;69.10;;;;;;4527210;31;20043;-72
2022/11/16 08:54:46;;;;;;;;;;;20.10;69.00;;;;;;4524789;31;20024;-72
2022/11/16 08:57:11;;;;;;;;;;;20.20;68.90;;;;;;4526779;31;20033;-75
2022/11/16 08:59:37;;;;;;;;;;;20.20;68.90;;;;;;4505805;31;20018;-74
2022/11/16 09:02:03;;;;;;;;;;;20.20;68.80;;;;;;4508119;31;20021;-74
2022/11/16 09:04:29;;;;;;;;;;;20.20;68.70;;;;;;4513234;31;19989;-74
2022/11/16 09:06:55;;;;;;;;;;;20.30;68.60;;;;;;4513138;31;20024;-75
2022/11/16 09:09:22;;;;;;;;;;;20.30;68.50;;;;;;4514754;31;20154;-75
2022/11/16 09:11:50;;;;;;;;;;;20.40;68.60;;;;;;4512409;31;20013;-73
2022/11/16 09:14:16;;;;;;;;;;;20.40;68.40;;;;;;4514537;31;20033;-72
2022/11/16 09:16:42;;;;;;;;;;;20.40;68.40;;;;;;4524571;31;20315;-72
2022/11/16 09:19:08;;;;;;;;;;;20.50;68.40;;;;;;4526622;31;20032;-72
2022/11/16 09:21:35;;;;;;;;;;;20.50;68.40;;;;;;4525701;31;19984;-72
2022/11/16 09:24:02;;;;;;;;;;;20.50;68.30;;;;;;4525107;31;20163;-74
2022/11/16 09:26:27;;;;;;;;;;;20.50;68.30;;;;;;4514227;31;20042;-71
2022/11/16 09:28:57;;;;;;;;;;;20.50;68.30;;;;;;4524339;31;20033;-73
2022/11/16 09:31:26;;;;;;;;;;;20.50;68.40;;;;;;4513323;31;20456;-71
2022/11/16 09:33:52;;;;;;;;;;;20.50;68.50;;;;;;4505437;31;20069;-72
2022/11/16 09:36:19;;;;;;;;;;;20.50;68.50;;;;;;4510123;31;20144;-68
2022/11/16 09:38:45;;;;;;;;;;;20.50;68.60;;;;;;4513575;31;20009;-70
2022/11/16 09:41:14;;;;;;;;;;;20.50;68.60;;;;;;4512898;31;20016;-70
2022/11/16 09:43:43;;;;;;;;;;;20.50;68.60;;;;;;4514228;31;20044;-70
2022/11/16 09:46:24;;;;;;;;;;;20.50;68.60;;;;;;4512103;31;20020;-70
2022/11/16 09:48:49;;;;;;;;;;;20.60;68.60;;;;;;4512981;31;20040;-73
2022/11/16 09:51:17;;;;;;;;;;;20.60;68.50;;;;;;4512269;31;20028;-71
2022/11/16 09:53:51;;;;;;;;;;;20.60;68.50;;;;;;4507753;31;20056;-73
2022/11/16 09:56:19;;;;;;;;;;;20.60;68.50;;;;;;4499171;31;19985;-71
2022/11/16 09:59:05;;;;;;;;;;;20.60;68.50;;;;;;4508599;31;20417;-71
2022/11/16 10:01:43;;;;;;;;;;;20.70;68.60;;;;;;4509343;31;20035;-69
2022/11/16 10:04:19;;;;;;;;;;;20.70;68.50;;;;;;4521696;31;20054;-71
2022/11/16 10:06:48;;;;;;;;;;;20.70;68.40;;;;;;4509846;31;20025;-74
2022/11/16 10:09:14;;;;;;;;;;;20.70;68.40;;;;;;4512411;31;20052;-73
2022/11/16 10:11:50;;;;;;;;;;;20.70;68.30;;;;;;4511217;31;20032;-71
2022/11/16 10:14:19;;;;;;;;;;;20.80;68.50;;;;;;4515473;31;20106;-72
2022/11/16 10:17:00;;;;;;;;;;;20.80;68.40;;;;;;4511356;31;20045;-72
2022/11/16 10:19:38;;;;;;;;;;;20.80;68.40;;;;;;4524269;31;20045;-73
2022/11/16 10:22:10;;;;;;;;;;;20.80;68.40;;;;;;4508832;31;20062;-69
2022/11/16 10:24:52;;;;;;;;;;;20.80;68.30;;;;;;4509539;31;20039;-72
2022/11/16 10:27:38;;;;;;;;;;;20.80;68.30;;;;;;4517066;31;20154;-73
2022/11/16 10:30:10;;;;;;;;;;;20.80;68.30;;;;;;4506380;31;20009;-72
2022/11/16 10:32:52;;;;;;;;;;;20.90;68.20;;;;;;4514715;31;20043;-72
2022/11/16 10:35:44;;;;;;;;;;;20.90;68.20;;;;;;4539422;31;20563;-74
2022/11/16 10:38:11;;;;;;;;;;;20.90;68.10;;;;;;4509793;31;20056;-72
2022/11/16 10:40:38;;;;;;;;;;;20.90;68.10;;;;;;4508317;31;23862;-71
2022/11/16 10:43:13;;;;;;;;;;;21.00;68.00;;;;;;4527869;31;19992;-70
2022/11/16 10:45:42;;;;;;;;;;;21.00;68.10;;;;;;4528067;31;20032;-72
2022/11/16 10:48:14;;;;;;;;;;;21.00;68.00;;;;;;4531064;31;20036;-71
2022/11/16 10:50:42;;;;;;;;;;;21.00;68.00;;;;;;4527543;31;20585;-74
2022/11/16 10:53:24;;;;;;;;;;;21.00;68.00;;;;;;4530783;31;20036;-73
2022/11/16 10:56:13;;;;;;;;;;;21.10;68.10;;;;;;4541681;31;19972;-71
2022/11/16 10:58:48;;;;;;;;;;;21.10;68.10;;;;;;4519191;31;20194;-73
2022/11/16 11:01:25;;;;;;;;;;;21.10;68.10;;;;;;4530168;31;20158;-75
2022/11/16 11:03:51;;;;;;;;;;;21.10;68.10;;;;;;4529471;31;20040;-71
2022/11/16 11:06:17;;;;;;;;;;;21.10;68.00;;;;;;4530056;31;20071;-72
2022/11/16 11:08:43;;;;;;;;;;;21.10;68.00;;;;;;4528673;31;19996;-71
2022/11/16 11:14:19;;;;;;;;;;;21.10;68.10;;;;;;4494836;31;20043;-76
2022/11/16 11:16:51;;;;;;;;;;;21.10;68.00;;;;;;4504272;31;20009;-75
2022/11/16 11:19:18;;;;;;;;;;;21.10;68.00;;;;;;4530589;31;20036;-77
2022/11/16 11:21:43;;;;;;;;;;;21.10;67.90;;;;;;4530349;31;19988;-78
2022/11/16 11:24:15;;;;;;;;;;;21.10;67.90;;;;;;4526404;31;20035;-78
2022/11/16 11:26:41;;;;;;;;;;;21.10;67.90;;;;;;4530904;31;20067;-78
2022/11/16 11:29:21;;;;;;;;;;;21.20;67.80;;;;;;4526240;31;20039;-74
2022/11/16 11:31:49;;;;;;;;;;;21.10;67.80;;;;;;4529861;31;20079;-75
2022/11/16 11:34:17;;;;;;;;;;;21.20;67.80;;;;;;4528888;31;20039;-75
2022/11/16 11:36:49;;;;;;;;;;;21.20;67.80;;;;;;4524122;31;20522;-76
2022/11/16 11:39:15;;;;;;;;;;;21.20;67.80;;;;;;4521074;31;20524;-76
2022/11/16 11:41:45;;;;;;;;;;;21.20;67.80;;;;;;4524971;31;20090;-76
2022/11/16 11:44:11;;;;;;;;;;;21.30;67.70;;;;;;4522422;31;20028;-76
2022/11/16 11:46:38;;;;;;;;;;;21.30;67.70;;;;;;4524464;31;20044;-75
2022/11/16 11:49:17;;;;;;;;;;;21.30;67.80;;;;;;4531300;31;20032;-76
2022/11/16 11:51:44;;;;;;;;;;;21.30;67.80;;;;;;4530713;31;20004;-77
2022/11/16 11:54:30;;;;;;;;;;;21.30;67.90;;;;;;4529716;31;20097;-78
2022/11/16 11:56:56;;;;;;;;;;;21.40;67.90;;;;;;4518847;31;20056;-77
2022/11/16 11:59:23;;;;;;;;;;;21.40;67.90;;;;;;4527022;31;20025;-76
2022/11/16 12:02:08;;;;;;;;;;;21.40;67.80;;;;;;4529775;31;20046;-75
2022/11/16 12:04:49;;;;;;;;;;;21.40;67.90;;;;;;4526199;31;19992;-75
2022/11/16 12:07:15;;;;;;;;;;;21.40;67.90;;;;;;4526192;31;20582;-76
2022/11/16 12:09:43;;;;;;;;;;;21.40;67.90;;;;;;4530171;31;20033;-76
2022/11/16 12:12:15;;;;;;;;;;;21.40;68.00;;;;;;4525661;31;20086;-76
2022/11/16 12:15:01;;;;;;;;;;;21.40;68.10;;;;;;4529213;31;20028;-75
2022/11/16 12:17:34;;;;;;;;;;;21.40;68.20;;;;;;4526101;31;20488;-75
2022/11/16 12:20:00;;;;;;;;;;;21.40;68.20;;;;;;4524471;31;20051;-76
2022/11/16 12:22:36;;;;;;;;;;;21.40;68.20;;;;;;4527556;31;20100;-76
2022/11/16 12:25:21;;;;;;;;;;;21.40;68.20;;;;;;4528792;31;20032;-76
2022/11/16 12:28:08;;;;;;;;;;;21.40;68.30;;;;;;4524968;31;20040;-76
2022/11/16 12:30:44;;;;;;;;;;;21.50;68.30;;;;;;4530590;31;20034;-76
2022/11/16 12:33:12;;;;;;;;;;;21.50;68.40;;;;;;4527553;31;20043;-77
2022/11/16 12:35:41;;;;;;;;;;;21.50;68.40;;;;;;4527170;31;20021;-75
2022/11/16 12:38:08;;;;;;;;;;;21.50;68.50;;;;;;4528304;31;20388;-75
2022/11/16 12:40:36;;;;;;;;;;;21.50;68.50;;;;;;4527663;31;20113;-74
2022/11/16 12:43:20;;;;;;;;;;;21.50;68.60;;;;;;4529885;31;20047;-74
2022/11/16 12:45:59;;;;;;;;;;;21.50;68.50;;;;;;4525219;31;20077;-75
2022/11/16 12:48:34;;;;;;;;;;;21.60;68.80;;;;;;4530445;31;20056;-75
2022/11/16 12:51:19;;;;;;;;;;;21.60;68.70;;;;;;4525204;31;20021;-75
2022/11/16 12:54:00;;;;;;;;;;;21.60;68.60;;;;;;4521839;31;20029;-81
2022/11/16 12:56:39;;;;;;;;;;;21.60;68.60;;;;;;4529123;31;20166;-74
2022/11/16 12:59:15;;;;;;;;;;;21.60;68.50;;;;;;4529677;31;20117;-75
2022/11/16 13:01:48;;;;;;;;;;;21.60;68.50;;;;;;4529225;31;20374;-82
2022/11/16 13:04:19;;;;;;;;;;;21.60;68.60;;;;;;4528675;31;20158;-72
2022/11/16 13:06:55;;;;;;;;;;;21.70;68.60;;;;;;4528801;31;20141;-76
2022/11/16 13:09:26;;;;;;;;;;;21.70;68.60;;;;;;4514511;31;20033;-75
2022/11/16 13:11:54;;;;;;;;;;;21.70;68.60;;;;;;4527766;31;20099;-72
2022/11/16 13:14:23;;;;;;;;;;;21.70;68.60;;;;;;4527242;31;20113;-73
2022/11/16 13:16:50;;;;;;;;;;;21.70;68.60;;;;;;4525372;31;20142;-78
2022/11/16 13:19:18;;;;;;;;;;;21.70;69.50;;;;;;4526306;31;20036;-73
2022/11/16 13:21:43;;;;;;;;;;;21.70;68.80;;;;;;4527545;31;19988;-74
2022/11/16 13:24:16;;;;;;;;;;;21.60;68.80;;;;;;4528025;31;20031;-75
2022/11/16 13:26:46;;;;;;;;;;;21.60;69.00;;;;;;4529896;31;20039;-73
2022/11/16 13:29:27;;;;;;;;;;;21.60;69.00;;;;;;4526385;31;20048;-75
2022/11/16 13:32:05;;;;;;;;;;;21.60;69.10;;;;;;4526212;31;20032;-73
2022/11/16 13:34:32;;;;;;;;;;;21.50;69.20;;;;;;4527928;31;19972;-72
2022/11/16 13:36:58;;;;;;;;;;;21.50;69.30;;;;;;4524816;31;20017;-73
2022/11/16 13:39:43;;;;;;;;;;;21.50;69.30;;;;;;4528708;31;20389;-71
2022/11/16 13:42:12;;;;;;;;;;;21.50;69.40;;;;;;4526648;31;20024;-76
2022/11/16 13:44:37;;;;;;;;;;;21.50;69.40;;;;;;4525150;31;20032;-74
2022/11/16 13:47:05;;;;;;;;;;;21.50;69.40;;;;;;4525566;31;20086;-75
2022/11/16 13:49:34;;;;;;;;;;;21.50;69.50;;;;;;4526702;31;20092;-76
2022/11/16 13:52:02;;;;;;;;;;;21.50;69.50;;;;;;4528126;31;20035;-76
2022/11/16 13:54:29;;;;;;;;;;;21.50;69.50;;;;;;4538221;31;20109;-76
2022/11/16 13:56:55;;;;;;;;;;;21.50;69.60;;;;;;4528133;31;20040;-77
2022/11/16 13:59:27;;;;;;;;;;;21.50;69.70;;;;;;4526391;31;20044;-79
2022/11/16 14:01:53;;;;;;;;;;;21.40;69.70;;;;;;4528181;31;20182;-79
2022/11/16 14:04:39;;;;;;;;;;;21.40;69.70;;;;;;4528767;31;19992;-78
2022/11/16 14:07:25;;;;;;;;;;;21.40;69.70;;;;;;4513207;31;20040;-81
2022/11/16 14:09:51;;;;;;;;;;;21.40;69.70;;;;;;4528071;31;20174;-78
2022/11/16 14:12:35;;;;;;;;;;;21.40;69.70;;;;;;4523767;31;20024;-81
2022/11/16 14:15:10;;;;;;;;;;;21.40;69.70;;;;;;4525578;31;20028;-82
2022/11/16 14:17:51;;;;;;;;;;;21.40;69.70;;;;;;4523815;31;20029;-75
2022/11/16 14:20:37;;;;;;;;;;;21.40;69.70;;;;;;4527429;31;20036;-80
2022/11/16 14:23:23;;;;;;;;;;;21.40;69.70;;;;;;4528999;31;20042;-79
2022/11/16 14:25:48;;;;;;;;;;;21.40;69.80;;;;;;4527560;31;19985;-78
2022/11/16 14:28:23;;;;;;;;;;;21.40;69.90;;;;;;4522402;31;20020;-85
2022/11/16 14:30:52;;;;;;;;;;;21.40;69.90;;;;;;4526069;31;20540;-76
2022/11/16 14:33:26;;;;;;;;;;;21.40;70.00;;;;;;4522147;31;20039;-77
2022/11/16 14:35:52;;;;;;;;;;;21.40;70.00;;;;;;4527959;31;20419;-77
2022/11/16 14:38:27;;;;;;;;;;;21.40;69.90;;;;;;4513057;31;20071;-78
2022/11/16 14:40:54;;;;;;;;;;;21.50;70.10;;;;;;4525061;31;20051;-75
2022/11/16 14:43:43;;;;;;;;;;;21.50;70.10;;;;;;4529012;31;20111;-73
2022/11/16 14:46:19;;;;;;;;;;;21.50;70.10;;;;;;4520348;31;20044;-73
2022/11/16 14:48:45;;;;;;;;;;;21.50;70.10;;;;;;4526119;31;20091;-74
2022/11/16 14:51:23;;;;;;;;;;;21.50;70.10;;;;;;4525673;31;20154;-71
2022/11/16 14:53:58;;;;;;;;;;;21.50;70.10;;;;;;4525799;31;20032;-73
2022/11/16 14:56:24;;;;;;;;;;;21.50;70.30;;;;;;4498133;31;27938;-72
2022/11/16 14:58:54;;;;;;;;;;;21.50;70.20;;;;;;4495612;31;20028;-73
2022/11/16 15:01:22;;;;;;;;;;;21.50;70.20;;;;;;4502042;31;20029;-72
2022/11/16 15:04:01;;;;;;;;;;;21.50;70.40;;;;;;4504554;31;20017;-71
2022/11/16 15:06:27;;;;;;;;;;;21.50;70.40;;;;;;4511052;31;20064;-71
2022/11/16 15:08:57;;;;;;;;;;;21.50;70.40;;;;;;4500214;31;20029;-72
2022/11/16 15:11:26;;;;;;;;;;;21.50;70.40;;;;;;4511609;31;20036;-71